Airfield :
LOGIN :

Register | Disclaimer

   EN    FR    IT 

 










Legend :    VFR   Marginal VFR   IFR   Intensive IFR   Very Intensive IFR
Visi :
Ceiling :
>= 8 km
>= 3000ft
5 to 8 km
1000 to 3000 ft
1500m to 5 km
500 to 1000 ft
800 to 1500m
200 to 500 ft
< 800m
< 200 ft
Symbols :   Thunderstorms  Fog  Heavy snow  Heavy precipitations  Wind > 20 kt
SIGMETs :     Misc.  Thunderstorms  Icing  Turbulence  Mountain Waves  Volcanic Ashes






- Airport Elevation : 170 ft
- IATA code : KRP


EKKA - Karup

CURRENT METAR :
  • 200650Z AUTO 28008KT 9999 OVC007/// 11/09 Q1018 TEMPO BKN012

EXPIRED METARs :
  • 200620Z AUTO 28007KT 9999 OVC007/// 11/09 Q1018 TEMPO BKN012
  • 200614Z 28009KT 9999 BKN007 11/10 Q1018 TEMPO BKN012
  • 200550Z 27008KT 9999 FEW006 SCT008 BKN012 11/10 Q1018 RERA TEMPO BKN008
  • 200520Z 27008KT 9999 FEW008 BKN010 11/10 Q1018 RERA TEMPO 6000 BKN006
  • 200450Z 27006KT 8000 FEW004 BKN012 10/10 Q1017 RERA TEMPO 6000 BKN004
  • 200420Z AUTO 26006KT 6000 BKN003/// 10/09 Q1017

TAF TAF EKKA
Valid from the 20 at 06:00 until the 21 at 06:00 UTC


200503Z 2006/2106 27006KT 9999 BKN012
TEMPO 2006/2008 6000 BKN006
BECMG 2008/2009 SCT020
BECMG 2021/2023 5000 -RA
TEMPO 2023/2106 3000 RA BKN007



MET'MAP, your aeronautical weather chart ! - Copyright ORBIFLY December 2007 - Disclaimer

ORBIFLY MET'MAP TEAM :

Programming & Development : Alexandra Zaïnal
Original concept : Baudouin d'Aumeries
Technical & hardware support : Manuel Goepfert
Assistance : Marc-Olivier Méhu

Contact : metmap@orbifly.com




SOURCES & CREDITS :

   NOAA